Time;durP1;ratioP1;P1;durP2;ratioP2;P2;SDS_P1;SDS_P2;PMS_P1;PMS_P2;Temp;Humidity;BMP_temperature;BMP_pressure;BME280_temperature;BME280_humidity;BME280_pressure;Samples;Min_cycle;Max_cycle;Signal;HPM_P1;HPM_P2
2023/09/06 00:01:07;;;;;;;5.40;2.10;;;15.70;99.90;;;;;;5035451;28;20261;-86
2023/09/06 00:03:35;;;;;;;2.53;2.03;;;15.80;99.90;;;;;;5030804;28;20782;-87
2023/09/06 00:06:01;;;;;;;3.47;1.80;;;15.70;99.90;;;;;;5027107;28;20201;-85
2023/09/06 00:08:27;;;;;;;3.50;2.00;;;15.70;99.90;;;;;;5035230;28;20677;-85
2023/09/06 00:10:52;;;;;;;3.63;2.00;;;15.60;99.90;;;;;;5033151;28;20175;-85
2023/09/06 00:13:18;;;;;;;3.33;2.37;;;15.60;99.90;;;;;;5033809;28;20277;-85
2023/09/06 00:15:44;;;;;;;2.97;2.00;;;15.50;99.90;;;;;;5034902;28;20166;-87
2023/09/06 00:18:09;;;;;;;3.50;2.40;;;15.50;99.90;;;;;;5033085;28;20189;-85
2023/09/06 00:20:37;;;;;;;5.90;2.30;;;15.50;99.90;;;;;;5032810;28;20641;-85
2023/09/06 00:23:05;;;;;;;2.47;1.80;;;15.60;99.90;;;;;;5034319;28;20692;-85
2023/09/06 00:25:32;;;;;;;3.10;2.00;;;15.70;99.90;;;;;;5034746;28;20183;-84
2023/09/06 00:28:00;;;;;;;3.20;2.10;;;15.70;98.50;;;;;;5033752;28;20206;-84
2023/09/06 00:30:26;;;;;;;2.87;2.13;;;15.60;99.90;;;;;;5033288;28;20198;-84
2023/09/06 00:32:54;;;;;;;3.27;2.03;;;15.70;99.90;;;;;;5034774;28;20233;-85
2023/09/06 00:35:23;;;;;;;2.30;2.10;;;15.60;97.30;;;;;;5033501;28;20210;-84
2023/09/06 00:37:49;;;;;;;2.70;1.90;;;15.60;99.90;;;;;;5032907;28;20182;-85
2023/09/06 00:40:18;;;;;;;3.70;2.10;;;15.50;99.90;;;;;;5033909;28;20653;-85
2023/09/06 00:42:47;;;;;;;3.40;1.80;;;15.40;99.90;;;;;;5034162;28;20209;-85
2023/09/06 00:45:13;;;;;;;2.47;2.00;;;15.40;99.90;;;;;;5032747;28;20641;-85
2023/09/06 00:47:42;;;;;;;3.53;1.97;;;15.30;99.90;;;;;;5033766;28;20206;-85
2023/09/06 00:50:07;;;;;;;3.40;1.97;;;15.30;99.90;;;;;;5032150;28;20177;-84
2023/09/06 00:52:33;;;;;;;2.20;2.00;;;15.30;99.90;;;;;;5032778;28;20194;-87
2023/09/06 00:55:01;;;;;;;3.23;2.10;;;15.20;18.70;;;;;;5032343;28;20641;-85
2023/09/06 00:57:29;;;;;;;2.10;1.90;;;15.30;94.20;;;;;;5032416;28;20178;-85
2023/09/06 00:59:59;;;;;;;2.53;2.27;;;15.40;57.40;;;;;;5033272;28;20182;-85
2023/09/06 01:02:26;;;;;;;2.63;2.07;;;15.50;1.00;;;;;;5033515;28;20558;-85
2023/09/06 01:04:53;;;;;;;2.37;2.17;;;15.40;1.00;;;;;;5032473;28;20174;-85
2023/09/06 01:07:21;;;;;;;2.57;2.00;;;15.20;6.00;;;;;;5033401;28;22051;-84
2023/09/06 01:09:47;;;;;;;2.27;2.03;;;15.00;61.30;;;;;;5032969;28;20178;-85
2023/09/06 01:12:13;;;;;;;2.80;1.90;;;15.00;99.90;;;;;;5033300;28;20198;-84
2023/09/06 01:14:41;;;;;;;2.47;2.03;;;14.90;99.90;;;;;;5033220;28;20241;-85
2023/09/06 01:17:08;;;;;;;1.97;1.80;;;14.80;99.90;;;;;;5033364;28;20170;-85
2023/09/06 01:19:39;;;;;;;2.50;2.00;;;14.80;99.90;;;;;;5031772;28;20227;-84
2023/09/06 01:22:20;;;;;;;2.73;2.03;;;14.80;99.90;;;;;;5031980;28;20553;-85
2023/09/06 01:24:47;;;;;;;2.40;2.00;;;15.00;99.90;;;;;;5033221;28;20185;-85
2023/09/06 01:27:12;;;;;;;2.70;2.37;;;15.00;99.90;;;;;;5031881;28;20178;-85
2023/09/06 01:29:38;;;;;;;2.20;2.00;;;15.00;99.90;;;;;;5031515;28;20232;-86
2023/09/06 01:32:05;;;;;;;2.13;1.97;;;15.00;46.70;;;;;;5031961;28;20198;-85
2023/09/06 01:34:31;;;;;;;3.27;1.70;;;14.80;73.30;;;;;;5033272;28;20175;-86
2023/09/06 01:36:57;;;;;;;3.10;2.00;;;14.80;99.90;;;;;;5033166;28;20190;-87
2023/09/06 01:39:23;;;;;;;2.20;1.93;;;14.70;99.90;;;;;;5038245;28;20192;-84
2023/09/06 01:41:48;;;;;;;2.40;2.00;;;14.60;99.90;;;;;;5031997;28;20276;-85
2023/09/06 01:44:14;;;;;;;2.90;2.13;;;14.60;99.90;;;;;;5028826;28;20183;-85
2023/09/06 01:46:40;;;;;;;2.33;2.10;;;14.50;99.90;;;;;;5037096;28;20205;-85
2023/09/06 01:49:08;;;;;;;2.20;2.00;;;14.40;99.90;;;;;;5024791;28;20615;-84
2023/09/06 01:51:34;;;;;;;3.80;2.10;;;14.50;99.90;;;;;;5032512;28;20526;-85
2023/09/06 01:54:01;;;;;;;5.47;2.10;;;14.50;99.90;;;;;;5032927;28;20265;-86
2023/09/06 01:56:27;;;;;;;3.60;2.30;;;14.60;99.90;;;;;;5035998;28;20191;-85
2023/09/06 01:58:53;;;;;;;2.43;2.03;;;14.60;99.90;;;;;;5024357;28;20174;-85
2023/09/06 02:01:19;;;;;;;3.57;2.30;;;14.50;99.90;;;;;;5032368;28;20186;-85
2023/09/06 02:03:45;;;;;;;5.13;2.20;;;14.50;99.90;;;;;;5032008;28;20221;-85
2023/09/06 02:06:10;;;;;;;2.60;1.93;;;14.30;99.90;;;;;;5032926;28;20190;-85
2023/09/06 02:08:36;;;;;;;2.50;2.27;;;14.30;99.90;;;;;;5034000;28;20214;-85
2023/09/06 02:11:01;;;;;;;2.50;2.30;;;14.20;99.90;;;;;;5040596;28;20177;-85
2023/09/06 02:13:27;;;;;;;4.37;2.30;;;14.20;99.90;;;;;;5028250;28;20198;-85
2023/09/06 02:15:52;;;;;;;2.77;2.33;;;14.10;99.90;;;;;;5036160;28;20178;-86
2023/09/06 02:18:18;;;;;;;3.70;2.40;;;14.10;99.90;;;;;;5037018;28;20185;-85
2023/09/06 02:20:45;;;;;;;2.70;2.40;;;14.10;99.90;;;;;;5036288;28;20522;-85
2023/09/06 02:23:10;;;;;;;3.57;2.40;;;14.30;99.90;;;;;;5035070;28;20712;-85
2023/09/06 02:25:36;;;;;;;2.73;2.20;;;14.30;99.90;;;;;;5036802;28;20189;-85
2023/09/06 02:28:06;;;;;;;3.60;2.30;;;14.40;99.90;;;;;;5036061;28;20248;-85
2023/09/06 02:30:36;;;;;;;2.30;2.07;;;14.40;98.70;;;;;;5034853;28;20285;-85
2023/09/06 02:33:04;;;;;;;3.40;2.50;;;14.30;79.90;;;;;;5036762;28;20600;-85
2023/09/06 02:35:29;;;;;;;2.60;2.40;;;14.30;99.90;;;;;;5035104;28;20228;-86
2023/09/06 02:37:55;;;;;;;2.80;2.50;;;14.40;99.90;;;;;;5036955;28;20175;-85
2023/09/06 02:40:21;;;;;;;3.97;2.63;;;14.40;99.90;;;;;;5034653;28;20736;-85
2023/09/06 02:42:51;;;;;;;2.40;2.20;;;14.40;1.00;;;;;;5036359;28;20214;-85
2023/09/06 02:45:17;;;;;;;2.83;2.50;;;14.30;99.90;;;;;;5035529;28;20182;-85
2023/09/06 02:47:50;;;;;;;2.57;2.20;;;14.20;99.90;;;;;;5036157;28;20197;-85
2023/09/06 02:50:23;;;;;;;2.90;2.37;;;14.10;99.90;;;;;;5034483;28;20186;-85
2023/09/06 02:52:52;;;;;;;3.13;2.40;;;14.10;99.90;;;;;;5036247;28;20226;-85
2023/09/06 02:55:18;;;;;;;2.40;2.20;;;14.10;98.90;;;;;;5036091;28;20684;-85
2023/09/06 02:57:43;;;;;;;5.33;2.10;;;14.10;26.20;;;;;;5036230;28;20265;-85
2023/09/06 03:00:24;;;;;;;2.60;2.30;;;14.00;99.90;;;;;;5034457;28;20649;-85
2023/09/06 03:03:05;;;;;;;4.07;2.40;;;14.00;99.90;;;;;;5035924;28;20205;-85
2023/09/06 03:05:31;;;;;;;3.13;2.60;;;14.00;99.90;;;;;;5034776;28;20212;-87
2023/09/06 03:07:57;;;;;;;2.33;2.13;;;13.90;99.90;;;;;;5035933;28;20212;-85
2023/09/06 03:10:23;;;;;;;3.73;2.37;;;13.90;40.30;;;;;;5034334;28;20163;-88
2023/09/06 03:12:58;;;;;;;2.70;2.40;;;13.80;99.90;;;;;;5034461;28;20716;-85
2023/09/06 03:15:27;;;;;;;3.70;2.30;;;14.00;91.30;;;;;;5034559;28;20269;-84
2023/09/06 03:17:53;;;;;;;3.70;2.40;;;13.90;36.70;;;;;;5035686;28;20175;-85
2023/09/06 03:20:22;;;;;;;3.00;2.50;;;13.90;90.30;;;;;;5032336;28;20642;-85
2023/09/06 03:22:51;;;;;;;3.17;2.47;;;13.80;97.60;;;;;;5035662;28;20199;-85
2023/09/06 03:25:17;;;;;;;2.90;2.50;;;13.80;42.10;;;;;;5033808;28;20316;-85
2023/09/06 03:27:43;;;;;;;2.50;2.30;;;13.80;99.90;;;;;;5034232;28;20239;-85
2023/09/06 03:30:12;;;;;;;2.83;2.23;;;13.80;50.90;;;;;;5033657;28;20652;-85
2023/09/06 03:32:42;;;;;;;2.43;2.23;;;13.70;99.70;;;;;;5034061;28;20282;-84
2023/09/06 03:35:08;;;;;;;2.67;2.30;;;13.70;99.90;;;;;;5034136;28;20174;-85
2023/09/06 03:37:33;;;;;;;2.67;2.30;;;13.70;99.90;;;;;;5035694;28;20220;-85
2023/09/06 03:40:00;;;;;;;2.87;2.17;;;13.50;99.90;;;;;;5039064;28;20201;-85
2023/09/06 03:42:25;;;;;;;3.43;2.60;;;13.50;99.90;;;;;;5030915;28;20225;-85
2023/09/06 03:44:52;;;;;;;3.03;2.63;;;13.50;99.90;;;;;;5029039;28;20185;-84
2023/09/06 03:47:18;;;;;;;2.60;2.20;;;13.50;99.90;;;;;;5034615;28;20174;-85
2023/09/06 03:49:45;;;;;;;3.80;2.67;;;13.40;96.40;;;;;;5039579;28;20173;-85
2023/09/06 03:52:12;;;;;;;3.87;2.50;;;13.40;99.90;;;;;;5025258;28;20225;-85
2023/09/06 03:54:37;;;;;;;3.50;2.50;;;13.50;99.90;;;;;;5034821;28;20170;-85
2023/09/06 03:57:04;;;;;;;2.60;2.27;;;13.40;99.90;;;;;;5034891;28;20189;-84
2023/09/06 03:59:35;;;;;;;3.30;2.70;;;13.30;90.20;;;;;;5033288;28;20179;-84
2023/09/06 04:04:30;;;;;;;3.20;2.47;;;13.10;99.90;;;;;;5075259;22;20253;-88
2023/09/06 04:06:55;;;;;;;2.83;2.60;;;13.20;99.90;;;;;;5053640;28;20169;-88
2023/09/06 04:09:27;;;;;;;2.77;2.50;;;13.20;99.90;;;;;;5052470;28;20201;-91
2023/09/06 04:11:54;;;;;;;2.50;2.30;;;13.20;99.90;;;;;;5052057;28;20170;-85
2023/09/06 04:14:22;;;;;;;5.10;2.77;;;13.10;99.90;;;;;;5071077;28;20208;-88
2023/09/06 04:16:48;;;;;;;3.73;2.40;;;13.20;99.90;;;;;;5072222;28;20167;-87
2023/09/06 04:19:14;;;;;;;3.63;2.40;;;13.20;99.90;;;;;;5073747;28;20169;-85
2023/09/06 04:21:40;;;;;;;3.30;2.70;;;13.30;99.90;;;;;;5073086;28;20177;-86
2023/09/06 04:24:08;;;;;;;3.07;2.57;;;13.30;99.90;;;;;;5073505;28;20197;-88
2023/09/06 04:26:34;;;;;;;4.43;2.87;;;13.30;99.90;;;;;;5073380;28;20278;-86
2023/09/06 04:29:03;;;;;;;4.80;2.80;;;13.30;94.40;;;;;;5072090;28;20235;-86
2023/09/06 04:31:30;;;;;;;2.83;2.23;;;13.10;99.90;;;;;;5071645;28;20193;-86
2023/09/06 04:33:57;;;;;;;2.60;2.20;;;13.10;99.90;;;;;;5073525;28;20193;-85
2023/09/06 04:36:23;;;;;;;4.23;2.43;;;13.10;99.90;;;;;;5074068;28;20208;-84
2023/09/06 04:38:49;;;;;;;2.50;2.27;;;13.00;99.90;;;;;;5072278;28;20177;-85
2023/09/06 04:41:14;;;;;;;3.23;2.57;;;13.00;99.90;;;;;;5072807;28;20201;-85
2023/09/06 04:43:40;;;;;;;3.83;2.20;;;13.00;99.90;;;;;;5073233;28;20197;-85
2023/09/06 04:46:06;;;;;;;3.13;2.67;;;12.90;99.90;;;;;;5072163;28;20177;-85
2023/09/06 04:48:32;;;;;;;3.33;2.83;;;12.90;99.90;;;;;;5071742;28;20204;-85
2023/09/06 04:50:59;;;;;;;3.37;2.90;;;13.00;99.90;;;;;;5071400;28;20165;-85
2023/09/06 04:53:25;;;;;;;5.37;2.67;;;13.00;99.90;;;;;;5072213;28;20229;-81
2023/09/06 04:55:52;;;;;;;3.00;2.70;;;13.00;99.90;;;;;;5072974;28;20186;-85
2023/09/06 04:58:18;;;;;;;3.10;2.73;;;12.80;99.90;;;;;;5072273;28;20181;-85
2023/09/06 05:00:47;;;;;;;3.20;2.53;;;12.90;99.90;;;;;;5073340;28;20561;-85
2023/09/06 05:03:17;;;;;;;4.27;2.70;;;12.90;99.90;;;;;;5073685;28;20205;-84
2023/09/06 05:05:45;;;;;;;3.30;3.00;;;13.00;99.90;;;;;;5072243;28;20264;-85
2023/09/06 05:08:11;;;;;;;2.80;2.60;;;13.20;99.90;;;;;;5072811;28;20208;-85
2023/09/06 05:10:37;;;;;;;3.93;2.50;;;13.30;99.90;;;;;;5072219;28;20165;-87
2023/09/06 05:13:07;;;;;;;3.60;2.93;;;13.30;99.90;;;;;;5071465;28;20193;-85
2023/09/06 05:15:34;;;;;;;4.47;2.53;;;13.40;99.90;;;;;;5073047;28;20184;-86
2023/09/06 05:17:59;;;;;;;4.93;2.60;;;13.30;86.50;;;;;;5072385;28;20190;-87
2023/09/06 05:20:35;;;;;;;3.37;2.80;;;13.40;99.90;;;;;;5070517;28;20181;-85
2023/09/06 05:23:14;;;;;;;3.57;2.70;;;13.40;99.90;;;;;;5070805;28;20220;-86
2023/09/06 05:25:41;;;;;;;3.50;2.47;;;13.50;90.10;;;;;;5070989;28;20663;-86
2023/09/06 05:28:12;;;;;;;3.00;2.70;;;13.40;99.90;;;;;;5070578;28;20208;-87
2023/09/06 05:30:46;;;;;;;3.50;2.80;;;13.50;99.90;;;;;;5070537;28;20173;-87
2023/09/06 05:33:13;;;;;;;4.87;2.70;;;13.50;99.90;;;;;;5070850;28;20196;-88
2023/09/06 05:35:41;;;;;;;5.23;2.90;;;13.50;99.90;;;;;;5070765;28;20263;-88
2023/09/06 05:38:09;;;;;;;3.27;2.60;;;13.50;99.90;;;;;;5070712;28;20177;-88
2023/09/06 05:40:35;;;;;;;3.80;2.90;;;13.50;99.90;;;;;;5070389;28;20263;-87
2023/09/06 05:43:01;;;;;;;4.07;2.73;;;13.40;99.90;;;;;;5068811;28;20203;-85
2023/09/06 05:45:26;;;;;;;2.53;2.33;;;13.50;99.90;;;;;;5069998;28;20248;-88
2023/09/06 05:47:53;;;;;;;3.00;2.63;;;13.50;99.90;;;;;;5070442;28;20211;-89
2023/09/06 05:50:19;;;;;;;3.97;2.70;;;13.50;99.90;;;;;;5071347;28;20185;-88
2023/09/06 05:52:44;;;;;;;2.93;2.63;;;13.50;99.90;;;;;;5070119;28;20257;-89
2023/09/06 05:55:10;;;;;;;3.50;3.17;;;13.50;99.90;;;;;;5070086;28;20177;-90
2023/09/06 05:57:37;;;;;;;3.30;3.00;;;13.60;99.90;;;;;;5069762;28;20192;-89
2023/09/06 06:00:06;;;;;;;3.40;3.03;;;13.60;99.90;;;;;;5070140;28;20181;-83
2023/09/06 06:02:32;;;;;;;4.80;3.17;;;13.60;99.90;;;;;;5070274;28;20592;-86
2023/09/06 06:04:58;;;;;;;3.40;2.70;;;13.60;99.90;;;;;;5069530;28;20189;-86
2023/09/06 06:07:24;;;;;;;3.40;3.10;;;13.60;99.90;;;;;;5069933;28;20176;-85
2023/09/06 06:09:49;;;;;;;3.70;3.30;;;13.60;99.90;;;;;;5067995;28;20165;-88
2023/09/06 06:12:22;;;;;;;4.63;3.43;;;13.60;99.90;;;;;;5070288;28;20176;-85
2023/09/06 06:14:47;;;;;;;4.63;3.67;;;13.60;99.90;;;;;;5070414;28;20199;-87
2023/09/06 06:17:13;;;;;;;3.70;3.40;;;13.60;99.90;;;;;;5070313;28;20180;-87
2023/09/06 06:19:38;;;;;;;4.37;3.57;;;13.70;99.90;;;;;;5069870;28;20177;-87
2023/09/06 06:22:04;;;;;;;3.90;3.43;;;13.80;99.90;;;;;;5070881;28;20264;-85
2023/09/06 06:24:33;;;;;;;4.23;3.40;;;14.10;99.90;;;;;;5072350;28;20197;-84
2023/09/06 06:26:59;;;;;;;5.20;3.60;;;14.10;99.90;;;;;;5072245;28;20553;-85
2023/09/06 06:29:25;;;;;;;4.30;3.60;;;14.10;99.90;;;;;;5071543;28;20746;-86
2023/09/06 06:31:51;;;;;;;3.90;3.50;;;14.10;99.90;;;;;;5071446;28;20185;-83
2023/09/06 06:34:18;;;;;;;3.83;3.40;;;14.10;99.90;;;;;;5070467;28;20205;-85
2023/09/06 06:36:45;;;;;;;6.33;3.50;;;14.10;99.90;;;;;;5072153;28;20173;-85
2023/09/06 06:39:12;;;;;;;5.27;3.57;;;14.20;99.90;;;;;;5071794;28;20185;-85
2023/09/06 06:41:38;;;;;;;5.50;4.03;;;14.20;99.90;;;;;;5071528;28;20169;-84
2023/09/06 06:44:04;;;;;;;4.23;3.77;;;14.30;99.90;;;;;;5074977;28;20196;-87
2023/09/06 06:46:33;;;;;;;4.77;4.30;;;14.40;99.90;;;;;;5070357;28;20187;-87
2023/09/06 06:49:01;;;;;;;4.43;4.03;;;14.40;99.90;;;;;;5074859;28;20626;-87
2023/09/06 06:51:27;;;;;;;5.17;4.63;;;14.60;99.90;;;;;;5070867;28;20639;-85
2023/09/06 06:53:53;;;;;;;5.97;4.80;;;14.70;99.90;;;;;;5071000;28;20217;-84
2023/09/06 06:56:21;;;;;;;5.47;4.83;;;14.80;99.90;;;;;;5075070;28;20224;-84
2023/09/06 06:58:48;;;;;;;5.93;4.73;;;14.80;99.90;;;;;;5076207;28;20650;-85
2023/09/06 07:01:14;;;;;;;6.93;5.27;;;14.90;99.90;;;;;;5075122;28;20238;-84
2023/09/06 07:03:40;;;;;;;6.53;5.13;;;15.10;99.90;;;;;;5075473;28;20212;-83
2023/09/06 07:06:07;;;;;;;6.03;4.50;;;15.20;99.90;;;;;;5079521;28;20173;-84
2023/09/06 07:08:32;;;;;;;9.57;5.03;;;15.40;99.90;;;;;;5077311;28;20589;-86
2023/09/06 07:10:59;;;;;;;4.90;4.47;;;15.50;99.90;;;;;;5075296;28;20184;-84
2023/09/06 07:13:25;;;;;;;5.47;4.37;;;15.60;99.90;;;;;;5074870;28;20189;-84
2023/09/06 07:15:50;;;;;;;5.53;4.43;;;15.70;99.90;;;;;;5074318;28;20184;-88
2023/09/06 07:18:16;;;;;;;5.50;4.70;;;15.80;99.90;;;;;;5075035;28;20173;-84
2023/09/06 07:20:42;;;;;;;6.30;4.83;;;16.00;99.90;;;;;;5072842;28;20200;-88
2023/09/06 07:23:08;;;;;;;5.30;4.77;;;16.00;99.90;;;;;;5073273;28;20197;-86
2023/09/06 07:25:33;;;;;;;7.20;4.93;;;16.20;99.90;;;;;;5072950;28;20685;-87
2023/09/06 07:27:59;;;;;;;5.37;4.87;;;16.30;99.90;;;;;;5074193;28;20724;-87
2023/09/06 07:30:25;;;;;;;6.17;4.90;;;16.40;99.90;;;;;;5072350;28;20185;-87
2023/09/06 07:32:51;;;;;;;4.90;4.40;;;16.50;99.90;;;;;;5074316;28;20192;-86
2023/09/06 07:35:16;;;;;;;5.13;4.67;;;16.60;99.90;;;;;;5074369;28;20272;-87
2023/09/06 07:37:43;;;;;;;5.87;4.80;;;16.70;99.90;;;;;;5074435;28;20173;-86
2023/09/06 07:40:09;;;;;;;5.20;4.70;;;16.80;99.90;;;;;;5072297;28;20176;-87
2023/09/06 07:42:41;;;;;;;5.57;4.90;;;16.90;99.90;;;;;;5073963;28;20195;-86
2023/09/06 07:45:07;;;;;;;7.27;4.90;;;17.10;99.90;;;;;;5073831;28;20554;-86
2023/09/06 07:47:33;;;;;;;6.37;5.00;;;17.20;99.90;;;;;;5073811;28;20177;-88
2023/09/06 07:49:59;;;;;;;5.30;4.80;;;17.30;99.90;;;;;;5073760;28;20222;-84
2023/09/06 07:52:24;;;;;;;5.43;4.77;;;17.40;99.90;;;;;;5073135;28;20170;-87
2023/09/06 07:54:50;;;;;;;5.40;4.73;;;17.50;99.90;;;;;;5073051;28;20207;-86
2023/09/06 07:57:16;;;;;;;7.43;5.07;;;17.70;99.90;;;;;;5074361;28;20648;-87
2023/09/06 07:59:41;;;;;;;10.33;5.10;;;17.70;99.90;;;;;;5073973;28;20173;-84
2023/09/06 08:02:07;;;;;;;4.83;4.27;;;17.90;99.90;;;;;;5072660;28;20173;-84
2023/09/06 08:04:32;;;;;;;4.87;3.90;;;18.00;47.20;;;;;;5073834;28;20211;-85
2023/09/06 08:06:58;;;;;;;7.17;4.27;;;18.20;74.40;;;;;;5072589;28;20165;-84
2023/09/06 08:09:24;;;;;;;5.43;4.20;;;18.40;1.00;;;;;;5072623;28;20197;-84
2023/09/06 08:11:49;;;;;;;5.33;4.10;;;18.60;1.00;;;;;;5072155;28;20173;-84
2023/09/06 08:14:15;;;;;;;4.60;4.10;;;18.70;1.00;;;;;;5073773;28;20200;-85
2023/09/06 08:16:41;;;;;;;4.87;4.23;;;18.80;95.90;;;;;;5073596;28;20214;-83
2023/09/06 08:19:07;;;;;;;4.90;4.40;;;18.90;1.00;;;;;;5073702;28;20222;-82
2023/09/06 08:21:34;;;;;;;4.27;3.63;;;19.10;1.00;;;;;;5073052;28;20296;-85
2023/09/06 08:24:02;;;;;;;5.33;4.50;;;19.30;99.90;;;;;;5073295;28;20197;-84
2023/09/06 08:26:28;;;;;;;4.60;4.07;;;19.40;99.90;;;;;;5073209;28;20534;-87
2023/09/06 08:28:54;;;;;;;4.53;3.92;;;19.50;99.90;;;;;;5071875;28;20562;-86
2023/09/06 08:31:19;;;;;;;5.27;4.17;;;19.70;1.00;;;;;;5072853;28;20184;-87
2023/09/06 08:33:45;;;;;;;6.63;4.00;;;19.90;99.90;;;;;;5073157;28;20242;-87
2023/09/06 08:36:11;;;;;;;3.83;3.42;;;20.00;1.00;;;;;;5071714;28;20169;-86
2023/09/06 08:38:39;;;;;;;4.28;3.60;;;20.20;99.90;;;;;;5071919;28;20169;-83
2023/09/06 08:41:07;;;;;;;4.57;3.88;;;20.40;27.10;;;;;;5073089;28;20169;-83
2023/09/06 08:43:36;;;;;;;3.90;3.50;;;20.50;99.90;;;;;;5072990;28;20200;-86
2023/09/06 08:46:30;;;;;;;4.05;3.65;;;20.70;1.00;;;;;;5072943;28;20246;-84
2023/09/06 08:48:57;;;;;;;8.43;3.92;;;20.80;1.00;;;;;;5063206;28;20220;-83
2023/09/06 08:51:24;;;;;;;5.40;3.42;;;20.80;1.00;;;;;;5071995;28;20173;-84
2023/09/06 08:53:52;;;;;;;5.70;3.40;;;21.10;1.00;;;;;;5071284;28;20197;-84
2023/09/06 08:56:19;;;;;;;3.83;3.40;;;21.30;1.00;;;;;;5071302;28;20165;-84
2023/09/06 08:58:44;;;;;;;5.90;3.65;;;21.50;99.90;;;;;;5072700;28;20173;-85
2023/09/06 09:01:10;;;;;;;3.88;3.50;;;21.70;1.00;;;;;;5071954;28;20176;-85
2023/09/06 09:03:35;;;;;;;5.82;4.13;;;21.80;1.00;;;;;;5070982;28;20209;-84
2023/09/06 09:06:06;;;;;;;4.60;3.75;;;22.00;1.00;;;;;;5072483;28;20206;-84
2023/09/06 09:08:33;;;;;;;4.68;3.28;;;22.20;99.90;;;;;;5072539;28;20279;-84
2023/09/06 09:11:15;;;;;;;4.65;3.45;;;22.30;99.90;;;;;;5071813;28;20172;-84
2023/09/06 09:13:41;;;;;;;3.88;3.47;;;22.40;99.90;;;;;;5071022;28;20213;-84
2023/09/06 09:16:12;;;;;;;4.72;3.50;;;22.50;16.20;;;;;;5070883;28;20165;-84
2023/09/06 09:18:38;;;;;;;5.13;3.70;;;22.60;88.90;;;;;;5071192;28;20682;-85
2023/09/06 09:21:07;;;;;;;4.22;3.83;;;22.70;1.00;;;;;;5071817;28;20187;-84
2023/09/06 09:23:40;;;;;;;3.60;3.30;;;22.80;1.00;;;;;;5071029;28;20203;-82
2023/09/06 09:26:08;;;;;;;3.88;3.47;;;23.00;1.00;;;;;;5072384;28;20173;-84
2023/09/06 09:28:35;;;;;;;4.03;3.53;;;23.20;1.00;;;;;;5071062;28;20200;-83
2023/09/06 09:31:01;;;;;;;4.45;3.78;;;23.30;1.00;;;;;;5071901;28;20200;-83
2023/09/06 09:33:29;;;;;;;4.07;3.60;;;23.50;1.00;;;;;;5072359;28;20189;-82
2023/09/06 09:35:55;;;;;;;4.00;3.25;;;23.60;1.00;;;;;;5070953;28;20268;-84
2023/09/06 09:38:21;;;;;;;3.65;3.13;;;23.80;1.00;;;;;;5071207;28;20219;-83
2023/09/06 09:41:06;;;;;;;4.20;3.80;;;23.80;1.00;;;;;;5070873;28;20173;-82
2023/09/06 09:43:32;;;;;;;4.60;3.90;;;23.90;99.90;;;;;;5071322;28;20199;-82
2023/09/06 09:45:58;;;;;;;5.25;3.45;;;24.00;99.90;;;;;;5071274;28;20272;-81
2023/09/06 09:48:29;;;;;;;4.13;3.03;;;24.10;1.00;;;;;;5071447;28;20637;-82
2023/09/06 09:50:55;;;;;;;5.15;3.55;;;24.30;99.90;;;;;;5072073;28;20173;-83
2023/09/06 09:53:24;;;;;;;4.45;3.17;;;24.60;99.90;;;;;;5072490;28;20265;-82
2023/09/06 09:55:53;;;;;;;4.45;3.42;;;24.70;99.90;;;;;;5071297;28;20201;-82
2023/09/06 09:58:20;;;;;;;3.72;3.42;;;24.70;99.90;;;;;;5071001;28;20203;-85
2023/09/06 10:00:50;;;;;;;3.90;3.50;;;24.90;99.90;;;;;;5071493;28;20180;-83
2023/09/06 10:03:18;;;;;;;3.65;3.30;;;25.20;99.90;;;;;;5068744;28;20221;-83
2023/09/06 10:05:45;;;;;;;3.83;3.40;;;25.30;1.00;;;;;;5088815;28;20173;-84
2023/09/06 10:08:12;;;;;;;4.05;3.20;;;25.30;1.00;;;;;;5070520;28;20673;-83
2023/09/06 10:10:39;;;;;;;4.63;3.35;;;25.40;1.00;;;;;;5071412;28;20169;-84
2023/09/06 10:13:07;;;;;;;3.78;3.22;;;25.40;1.00;;;;;;5071343;28;20187;-83
2023/09/06 10:15:34;;;;;;;5.38;4.00;;;25.50;1.00;;;;;;5072191;28;20188;-84
2023/09/06 10:18:00;;;;;;;5.80;3.38;;;25.40;1.00;;;;;;5065990;28;20648;-82
2023/09/06 10:20:30;;;;;;;3.90;3.25;;;25.50;1.00;;;;;;5061615;28;20177;-81
2023/09/06 10:22:57;;;;;;;4.03;3.63;;;25.60;1.00;;;;;;5071973;28;20197;-82
2023/09/06 10:25:23;;;;;;;4.18;3.33;;;25.70;1.00;;;;;;5071200;28;20627;-83
2023/09/06 10:27:51;;;;;;;3.90;3.50;;;25.80;1.00;;;;;;5070109;28;20200;-82
2023/09/06 10:30:44;;;;;;;3.75;3.40;;;25.80;99.90;;;;;;5074494;28;20181;-82
2023/09/06 10:33:42;;;;;;;4.50;3.50;;;26.00;1.00;;;;;;5055234;28;20284;-82
2023/09/06 10:36:13;;;;;;;4.35;3.50;;;26.00;99.90;;;;;;5056796;28;20186;-81
2023/09/06 10:38:58;;;;;;;5.80;4.00;;;26.10;99.90;;;;;;5071807;28;20177;-82
2023/09/06 10:41:26;;;;;;;3.58;3.28;;;26.10;99.90;;;;;;5055529;28;20231;-83
2023/09/06 10:43:58;;;;;;;3.70;3.25;;;26.30;1.00;;;;;;5071233;28;20198;-83
2023/09/06 10:46:30;;;;;;;4.40;3.70;;;26.60;99.90;;;;;;5056223;28;20177;-82
2023/09/06 10:49:22;;;;;;;3.95;3.33;;;26.80;99.10;;;;;;5055172;28;20189;-82
2023/09/06 10:52:08;;;;;;;3.58;3.15;;;26.90;99.90;;;;;;5055501;28;20177;-82
2023/09/06 10:54:38;;;;;;;5.15;3.38;;;27.10;1.00;;;;;;5071238;28;20182;-82
2023/09/06 10:57:05;;;;;;;4.68;3.53;;;27.20;53.90;;;;;;5054888;28;20185;-82
2023/09/06 10:59:32;;;;;;;3.72;3.33;;;27.30;49.20;;;;;;5054593;28;20173;-81
2023/09/06 11:02:07;;;;;;;3.33;3.03;;;27.50;55.90;;;;;;5070834;28;20223;-83
2023/09/06 11:04:33;;;;;;;3.72;3.17;;;27.60;1.00;;;;;;5077839;28;20204;-83
2023/09/06 11:06:59;;;;;;;3.40;3.10;;;27.60;12.60;;;;;;5076630;28;20188;-82
2023/09/06 11:09:25;;;;;;;3.72;3.42;;;27.70;1.00;;;;;;5091134;28;20197;-83
2023/09/06 11:11:52;;;;;;;3.55;2.92;;;27.80;1.00;;;;;;5090729;28;20199;-83
2023/09/06 11:14:17;;;;;;;3.67;3.17;;;27.90;1.00;;;;;;5074409;28;20212;-82
2023/09/06 11:16:47;;;;;;;3.75;3.28;;;28.30;99.90;;;;;;5074239;28;20574;-83
2023/09/06 11:19:12;;;;;;;6.00;3.20;;;28.60;8.50;;;;;;5074306;28;20176;-83
2023/09/06 11:21:38;;;;;;;3.67;3.28;;;28.70;1.00;;;;;;5073483;28;20617;-82
2023/09/06 11:24:04;;;;;;;3.40;3.10;;;28.80;1.00;;;;;;5090984;28;20204;-83
2023/09/06 11:26:37;;;;;;;3.65;2.97;;;28.80;1.00;;;;;;5075474;28;20230;-83
2023/09/06 11:29:03;;;;;;;3.50;3.20;;;28.90;1.00;;;;;;5089403;28;20196;-83
2023/09/06 11:31:33;;;;;;;3.15;2.85;;;29.10;1.00;;;;;;5090214;28;20180;-83
2023/09/06 11:34:05;;;;;;;3.58;3.00;;;29.10;1.00;;;;;;5075194;28;20344;-82
2023/09/06 11:36:33;;;;;;;3.63;3.08;;;29.30;99.90;;;;;;5074925;28;20172;-83
2023/09/06 11:39:21;;;;;;;3.45;3.15;;;29.30;99.90;;;;;;5075103;28;20208;-82
2023/09/06 11:41:48;;;;;;;3.22;2.95;;;29.10;99.90;;;;;;5073838;28;20158;-82
2023/09/06 11:44:17;;;;;;;3.17;2.63;;;29.20;99.90;;;;;;5074972;28;20711;-83
2023/09/06 11:46:43;;;;;;;3.40;3.10;;;29.40;99.90;;;;;;5075428;28;20192;-83
2023/09/06 11:49:10;;;;;;;3.53;3.22;;;29.70;99.90;;;;;;5090581;28;20197;-83
2023/09/06 11:51:37;;;;;;;3.67;2.78;;;30.10;99.90;;;;;;5073202;28;20639;-83
2023/09/06 11:54:09;;;;;;;3.15;2.78;;;30.40;99.90;;;;;;5091010;28;20231;-83
2023/09/06 11:56:38;;;;;;;3.28;2.83;;;30.50;99.90;;;;;;5075158;28;20157;-83
2023/09/06 11:59:12;;;;;;;3.03;2.65;;;30.40;99.90;;;;;;5075332;28;20260;-84
2023/09/06 12:01:43;;;;;;;4.18;2.72;;;30.70;99.90;;;;;;5091018;28;20176;-82
2023/09/06 12:04:16;;;;;;;2.80;2.50;;;30.70;99.90;;;;;;5074927;28;20212;-83
2023/09/06 12:06:42;;;;;;;2.65;2.40;;;30.70;88.90;;;;;;5074618;28;20219;-83
2023/09/06 12:09:15;;;;;;;3.10;2.65;;;30.60;58.30;;;;;;5073116;28;20671;-83
2023/09/06 12:11:40;;;;;;;2.70;2.50;;;30.70;62.30;;;;;;5070630;28;20185;-80
2023/09/06 12:14:10;;;;;;;2.67;2.47;;;30.70;39.10;;;;;;5070659;28;20193;-81
2023/09/06 12:16:36;;;;;;;2.58;2.38;;;30.90;39.20;;;;;;5065883;28;20179;-83
2023/09/06 12:19:03;;;;;;;2.92;2.28;;;31.00;33.00;;;;;;5068237;28;20187;-82
2023/09/06 12:21:28;;;;;;;2.45;2.25;;;31.00;31.70;;;;;;5085917;28;20264;-81
2023/09/06 12:23:54;;;;;;;2.50;2.30;;;30.90;24.70;;;;;;5071960;28;20220;-82
2023/09/06 12:26:20;;;;;;;2.92;2.28;;;30.90;23.00;;;;;;5072081;28;20184;-81
2023/09/06 12:28:47;;;;;;;3.03;2.10;;;31.00;17.50;;;;;;5070691;28;20201;-81
2023/09/06 12:31:14;;;;;;;2.60;2.40;;;31.10;21.60;;;;;;5085755;28;20177;-81
2023/09/06 12:33:40;;;;;;;2.78;2.40;;;31.40;18.90;;;;;;5073569;28;20571;-81
2023/09/06 12:36:08;;;;;;;3.42;2.42;;;31.30;13.80;;;;;;5075073;28;20173;-79
2023/09/06 12:38:33;;;;;;;2.67;2.40;;;31.20;13.40;;;;;;5074515;28;20226;-81
2023/09/06 12:41:00;;;;;;;2.92;2.50;;;31.40;12.70;;;;;;5072974;28;20172;-84
2023/09/06 12:43:26;;;;;;;2.40;2.20;;;31.40;15.40;;;;;;5072989;28;20211;-81
2023/09/06 12:45:57;;;;;;;2.78;2.40;;;31.20;12.80;;;;;;5072764;28;20240;-81
2023/09/06 12:48:23;;;;;;;2.50;2.30;;;31.20;8.40;;;;;;5074469;28;20564;-81
2023/09/06 12:50:50;;;;;;;2.60;2.30;;;31.40;21.80;;;;;;5074156;28;20639;-81
2023/09/06 12:53:16;;;;;;;2.60;2.13;;;31.50;15.80;;;;;;5074175;28;20185;-81